createdAt,value
2018-01-04T00:00:22.682Z,70.97
2018-01-04T00:01:03.836Z,71.01
2018-01-04T00:01:44.383Z,70.63
2018-01-04T00:02:24.886Z,70.5
2018-01-04T00:03:05.469Z,70.31
2018-01-04T00:03:45.877Z,70.69
2018-01-04T00:04:26.877Z,71.36
2018-01-04T00:05:07.891Z,71.36
2018-01-04T00:05:48.563Z,71.36
2018-01-04T00:06:29.301Z,71.64
2018-01-04T00:07:09.911Z,71.55
2018-01-04T00:07:50.616Z,71.26
2018-01-04T00:08:31.789Z,71.55
2018-01-04T00:09:11.882Z,71.64
2018-01-04T00:09:52.711Z,71.93
2018-01-04T00:10:33.159Z,71.45
2018-01-04T00:11:14.131Z,70.78
2018-01-04T00:11:54.362Z,71.73
2018-01-04T00:12:35.645Z,71.55
2018-01-04T00:13:15.831Z,71.55
2018-01-04T00:13:56.433Z,72.21
2018-01-04T00:14:36.790Z,71.93
2018-01-04T00:15:17.494Z,71.36
2018-01-04T00:15:58.585Z,71.07
2018-01-04T00:16:38.909Z,71.45
2018-01-04T00:17:19.520Z,71.55
2018-01-04T00:18:00.036Z,71.36
2018-01-04T00:18:41.359Z,71.64
2018-01-04T00:19:21.644Z,71.36
2018-01-04T00:20:02.151Z,70.97
2018-01-04T00:20:42.641Z,70.97
2018-01-04T00:21:23.493Z,70.97
2018-01-04T00:22:03.974Z,71.45
2018-01-04T00:22:44.496Z,70.5
2018-01-04T00:23:24.833Z,71.64
2018-01-04T00:24:05.756Z,71.64
2018-01-04T00:24:46.354Z,71.55
2018-01-04T00:25:27.037Z,71.26
2018-01-04T00:26:07.471Z,71.73
2018-01-04T00:26:48.205Z,71.64
2018-01-04T00:27:28.937Z,71.93
2018-01-04T00:28:09.438Z,71.83
2018-01-04T00:28:49.926Z,71.45
2018-01-04T00:29:30.868Z,71.93
2018-01-04T00:30:11.693Z,71.55
2018-01-04T00:30:51.997Z,71.93
2018-01-04T00:31:32.816Z,71.55
2018-01-04T00:32:13.618Z,71.45
2018-01-04T00:32:54.230Z,71.36
2018-01-04T00:33:34.636Z,71.55
2018-01-04T00:34:15.345Z,71.36
2018-01-04T00:34:56.011Z,70.97
2018-01-04T00:35:36.432Z,70.5
2018-01-04T00:36:16.888Z,71.07
2018-01-04T00:36:57.320Z,71.55
2018-01-04T00:37:37.745Z,71.45
2018-01-04T00:38:18.329Z,71.83
2018-01-04T00:38:58.709Z,71.64
2018-01-04T00:39:39.487Z,71.36
2018-01-04T00:40:20.323Z,71.36
2018-01-04T00:41:01.336Z,71.64
2018-01-04T00:41:41.806Z,71.83
2018-01-04T00:42:22.418Z,72.21
2018-01-04T00:44:18.118Z,71.83
2018-01-04T00:45:02.246Z,72.31
2018-01-04T00:45:43.013Z,72.02
2018-01-04T00:46:23.336Z,72.02
2018-01-04T00:47:03.805Z,71.26
2018-01-04T00:47:44.540Z,71.93
2018-01-04T00:48:25.103Z,71.73
2018-01-04T00:49:05.682Z,71.55
2018-01-04T00:49:46.171Z,71.55
2018-01-04T00:50:26.983Z,71.73
2018-01-04T00:51:07.648Z,70.97
2018-01-04T00:51:48.041Z,71.45
2018-01-04T00:52:28.691Z,71.64
2018-01-04T00:53:09.139Z,71.45
2018-01-04T00:53:49.557Z,71.17
2018-01-04T00:54:30.034Z,71.45
2018-01-04T00:55:10.686Z,71.26
2018-01-04T00:55:51.589Z,70.97
2018-01-04T00:56:32.158Z,71.07
2018-01-04T00:57:12.560Z,71.36
2018-01-04T00:57:53.580Z,71.73
2018-01-04T00:58:33.821Z,71.45
2018-01-04T00:59:14.452Z,71.36
2018-01-04T00:59:54.952Z,71.73
2018-01-04T01:00:37.128Z,71.26
2018-01-04T01:01:17.117Z,71.64
2018-01-04T01:01:57.763Z,71.55
2018-01-04T01:02:38.815Z,71.73
2018-01-04T01:03:18.678Z,71.36
2018-01-04T01:04:01.253Z,71.64
2018-01-04T01:04:41.672Z,71.45
2018-01-04T01:05:22.155Z,71.36
2018-01-04T01:06:03.246Z,71.36
2018-01-04T01:06:43.662Z,71.73
2018-01-04T01:07:24.429Z,71.45
2018-01-04T01:08:05.144Z,71.64
2018-01-04T01:08:45.975Z,71.83
2018-01-04T01:09:26.716Z,71.93
2018-01-04T01:10:07.241Z,71.36
2018-01-04T01:10:47.443Z,71.17
2018-01-04T01:11:27.819Z,72.12
2018-01-04T01:13:42.405Z,71.36
2018-01-04T01:14:22.462Z,71.36
2018-01-04T01:15:03.579Z,71.45
2018-01-04T01:15:43.735Z,71.07
2018-01-04T01:16:24.386Z,71.26
2018-01-04T01:17:04.924Z,71.45
2018-01-04T01:17:45.310Z,71.55
2018-01-04T01:18:25.893Z,71.36
2018-01-04T01:19:06.534Z,70.88
2018-01-04T01:19:46.966Z,70.97
2018-01-04T01:20:27.497Z,70.88
2018-01-04T01:22:21.961Z,70.78
2018-01-04T01:24:56.389Z,71.73
2018-01-04T01:25:51.197Z,70.97
2018-01-04T01:26:45.804Z,71.36
2018-01-04T01:27:40.821Z,71.73
2018-01-04T01:28:34.310Z,71.45
2018-01-04T01:29:28.923Z,70.97
2018-01-04T01:30:21.910Z,71.45
2018-01-04T01:31:15.931Z,71.36
2018-01-04T01:33:46.192Z,71.45
2018-01-04T01:34:27.784Z,71.17
2018-01-04T01:35:09.997Z,71.83
2018-01-04T01:35:50.214Z,71.55
2018-01-04T01:36:32.020Z,71.17
2018-01-04T01:37:12.758Z,70.97
2018-01-04T01:37:53.738Z,70.88
2018-01-04T01:38:34.187Z,70.4
2018-01-04T01:39:16.583Z,70.97
2018-01-04T01:39:57.433Z,70.78
2018-01-04T01:40:38.308Z,70.5
2018-01-04T01:41:18.420Z,70.5
2018-01-04T01:42:00.062Z,71.07
2018-01-04T01:42:41.415Z,71.17
2018-01-04T01:43:21.827Z,70.97
2018-01-04T01:44:03.184Z,70.88
2018-01-04T01:44:43.454Z,70.97
2018-01-04T01:45:24.306Z,71.17
2018-01-04T01:46:06.123Z,71.64
2018-01-04T01:46:47.279Z,71.73
2018-01-04T01:47:28.811Z,71.36
2018-01-04T01:48:09.703Z,71.45
2018-01-04T01:48:51.513Z,71.36
2018-01-04T01:49:31.759Z,71.83
2018-01-04T01:50:13.712Z,72.02
2018-01-04T01:50:54.265Z,72.02
2018-01-04T01:51:35.717Z,72.02
2018-01-04T01:52:16.416Z,71.93
2018-01-04T01:52:57.445Z,71.83
2018-01-04T01:53:38.750Z,71.93
2018-01-04T01:54:19.870Z,71.93
2018-01-04T01:55:00.354Z,71.64
2018-01-04T01:55:41.737Z,71.61
2018-01-04T01:56:22.286Z,72.08
2018-01-04T01:57:03.120Z,71.98
2018-01-04T01:57:43.438Z,72.46
2018-01-04T01:58:24.395Z,72.75
2018-01-04T01:59:05.881Z,72.17
2018-01-04T01:59:46.224Z,72.75
2018-01-04T02:00:27.720Z,72.5
2018-01-04T02:01:07.813Z,72.5
2018-01-04T02:01:48.925Z,72.6
2018-01-04T02:02:30.279Z,72.02
2018-01-04T02:03:11.040Z,72.02
2018-01-04T02:03:54.134Z,71.55
2018-01-04T02:04:36.094Z,71.73
2018-01-04T02:05:17.796Z,72.02
2018-01-04T02:05:58.290Z,72.02
2018-01-04T02:06:38.886Z,71.26
2018-01-04T02:07:20.154Z,71.45
2018-01-04T02:08:00.635Z,71.36
2018-01-04T02:08:41.280Z,71.17
2018-01-04T02:09:22.152Z,71.73
2018-01-04T02:10:03.876Z,71.83
2018-01-04T02:10:45.344Z,72.02
2018-01-04T02:11:26.284Z,71.83
2018-01-04T02:12:07.449Z,71.64
2018-01-04T02:12:48.687Z,72.02
2018-01-04T02:13:29.322Z,71.36
2018-01-04T02:14:12.432Z,71.55
2018-01-04T02:14:54.232Z,71.83
2018-01-04T02:15:34.784Z,71.64
2018-01-04T02:16:15.179Z,71.55
2018-01-04T02:16:57.200Z,71.45
2018-01-04T02:17:37.459Z,71.64
2018-01-04T02:18:18.041Z,71.64
2018-01-04T02:18:58.449Z,71.55
2018-01-04T02:19:39.365Z,71.64
2018-01-04T02:20:19.894Z,71.73
2018-01-04T02:21:00.646Z,71.73
2018-01-04T02:21:41.363Z,71.83
2018-01-04T02:22:21.623Z,71.83
2018-01-04T02:23:03.235Z,71.93
2018-01-04T02:23:45.322Z,71.45
2018-01-04T02:24:26.935Z,71.83
2018-01-04T02:25:08.822Z,72.02
2018-01-04T02:25:49.730Z,72.5
2018-01-04T02:26:30.785Z,71.64
2018-01-04T02:27:11.341Z,71.73
2018-01-04T02:27:51.669Z,71.64
2018-01-04T02:28:32.924Z,71.36
2018-01-04T02:29:13.358Z,71.55
2018-01-04T02:29:53.808Z,71.73
2018-01-04T02:30:35.429Z,71.55
2018-01-04T02:31:15.484Z,71.83
2018-01-04T02:31:56.660Z,71.36
2018-01-04T02:32:37.309Z,71.55
2018-01-04T02:33:18.355Z,72.21
2018-01-04T02:33:59.603Z,71.36
2018-01-04T02:34:40.548Z,70.97
2018-01-04T02:35:22.003Z,71.55
2018-01-04T02:36:03.154Z,71.36
2018-01-04T02:36:43.603Z,71.36
2018-01-04T02:37:24.746Z,70.97
2018-01-04T02:38:06.144Z,71.17
2018-01-04T02:38:46.601Z,71.36
2018-01-04T02:39:28.863Z,71.73
2018-01-04T02:40:09.290Z,71.73
2018-01-04T02:40:50.218Z,71.83
2018-01-04T02:41:31.330Z,71.93
2018-01-04T02:42:12.119Z,71.45
2018-01-04T02:47:32.175Z,71.07
2018-01-04T02:48:12.575Z,71.55
2018-01-04T02:48:52.925Z,71.45
2018-01-04T02:49:33.408Z,71.26
2018-01-04T02:50:14.081Z,71.26
2018-01-04T02:50:55.057Z,71.83
2018-01-04T02:51:35.404Z,71.73
2018-01-04T02:53:40.083Z,72.02
2018-01-04T02:54:32.612Z,71.73
2018-01-04T02:55:26.199Z,71.55
2018-01-04T02:56:16.917Z,71.73
2018-01-04T02:57:06.534Z,71.36
2018-01-04T02:57:47.633Z,72.31
2018-01-04T02:58:27.991Z,72.21
2018-01-04T02:59:08.376Z,71.73
2018-01-04T02:59:48.830Z,72.12
2018-01-04T03:00:29.522Z,72.21
2018-01-04T03:01:10.691Z,72.31
2018-01-04T03:01:51.209Z,72.78
2018-01-04T03:02:31.442Z,72.21
2018-01-04T03:03:13.949Z,72.02
2018-01-04T03:03:54.702Z,71.83
2018-01-04T03:04:35.027Z,72.69
2018-01-04T03:05:15.492Z,73.26
2018-01-04T03:05:56.131Z,72.6
2018-01-04T03:06:36.552Z,72.21
2018-01-04T03:07:17.076Z,72.31
2018-01-04T03:07:58.409Z,72.69
2018-01-04T03:08:39.212Z,72.02
2018-01-04T03:09:19.711Z,71.55
2018-01-04T03:10:00.790Z,72.31
2018-01-04T03:10:41.208Z,72.31
2018-01-04T03:11:21.567Z,71.83
2018-01-04T03:12:02.053Z,71.36
2018-01-04T03:12:42.524Z,71.55
2018-01-04T03:13:22.956Z,71.87
2018-01-04T03:14:03.457Z,71.68
2018-01-04T03:14:43.881Z,71.26
2018-01-04T03:15:24.455Z,71.36
2018-01-04T03:16:04.938Z,71.68
2018-01-04T03:16:45.598Z,71.39
2018-01-04T03:17:25.859Z,71.11
2018-01-04T03:18:06.258Z,70.88
2018-01-04T03:18:46.745Z,70.92
2018-01-04T03:19:27.147Z,71.45
2018-01-04T03:20:07.733Z,71.36
2018-01-04T03:20:48.063Z,71.36
2018-01-04T03:21:28.713Z,71.73
2018-01-04T03:22:09.402Z,71.64
2018-01-04T03:22:49.589Z,71.55
2018-01-04T03:23:30.068Z,71.55
2018-01-04T03:24:10.509Z,71.55
2018-01-04T03:24:50.918Z,71.83
2018-01-04T03:25:31.557Z,71.45
2018-01-04T03:26:12.309Z,71.64
2018-01-04T03:26:53.350Z,71.77
2018-01-04T03:27:33.735Z,71.96
2018-01-04T03:28:14.129Z,71.58
2018-01-04T03:28:55.057Z,71.68
2018-01-04T03:29:36.310Z,71.87
2018-01-04T03:30:16.773Z,71.3
2018-01-04T03:30:57.278Z,71.48
2018-01-04T03:31:38.090Z,71.83
2018-01-04T03:32:18.563Z,71.93
2018-01-04T03:32:59.010Z,72.02
2018-01-04T03:33:39.427Z,71.58
2018-01-04T03:34:19.929Z,71.77
2018-01-04T03:35:00.344Z,71.64
2018-01-04T03:35:40.976Z,71.45
2018-01-04T03:36:21.564Z,71.48
2018-01-04T03:37:02.073Z,71.39
2018-01-04T03:37:42.753Z,71.96
2018-01-04T03:38:24.016Z,71.96
2018-01-04T03:39:04.522Z,71.68
2018-01-04T03:39:45.034Z,71.3
2018-01-04T03:40:25.537Z,71.01
2018-01-04T03:41:05.909Z,71.48
2018-01-04T03:41:46.827Z,71.48
2018-01-04T03:42:27.647Z,71.39
2018-01-04T03:43:08.540Z,71.3
2018-01-04T03:43:49.006Z,71.58
2018-01-04T03:44:29.688Z,71.68
2018-01-04T03:45:10.260Z,71.77
2018-01-04T03:45:51.670Z,71.48
2018-01-04T03:46:32.136Z,71.48
2018-01-04T03:47:12.580Z,71.77
2018-01-04T03:47:53.178Z,71.58
2018-01-04T03:48:34.463Z,71.39
2018-01-04T03:49:15.062Z,71.48
2018-01-04T03:49:55.487Z,71.87
2018-01-04T03:50:36.156Z,71.58
2018-01-04T03:51:16.712Z,71.58
2018-01-04T03:51:57.155Z,71.68
2018-01-04T03:52:38.011Z,71.58
2018-01-04T03:53:18.566Z,71.58
2018-01-04T03:54:00.073Z,71.77
2018-01-04T03:55:53.094Z,71.73
2018-01-04T03:56:32.849Z,72.12
2018-01-04T03:57:13.417Z,72.34
2018-01-04T03:57:53.784Z,72.16
2018-01-04T03:58:35.146Z,72.16
2018-01-04T03:59:15.835Z,72.31
2018-01-04T03:59:56.903Z,72.31
2018-01-04T04:00:37.286Z,72.12
2018-01-04T04:01:17.967Z,72.34
2018-01-04T04:01:59.003Z,72.44
2018-01-04T04:02:39.076Z,72.34
2018-01-04T04:03:19.581Z,71.87
2018-01-04T04:41:55.966Z,74.5
2018-01-04T04:42:49.820Z,74.16
2018-01-04T04:43:42.220Z,74.21
2018-01-04T04:44:34.235Z,74.21
2018-01-04T04:45:26.524Z,74.6
2018-01-04T04:46:19.184Z,74.4
2018-01-04T04:47:11.626Z,74.79
2018-01-04T04:48:04.241Z,74.88
2018-01-04T04:48:56.500Z,74.98
2018-01-04T04:49:49.471Z,74.69
2018-01-04T04:50:41.639Z,74.98
2018-01-04T04:51:34.174Z,74.98
2018-01-04T04:52:28.075Z,74.79
2018-01-04T04:53:20.157Z,75.26
2018-01-04T04:54:12.633Z,75.45
2018-01-04T04:55:05.097Z,75.36
2018-01-04T04:55:56.247Z,74.88
2018-01-04T04:56:36.314Z,74.4
2018-01-04T04:57:16.718Z,74.5
2018-01-04T04:57:58.111Z,74.69
2018-01-04T04:58:39.264Z,74.44
2018-01-04T04:59:19.627Z,74.4
2018-01-04T05:00:00.233Z,73.83
2018-01-04T05:00:40.514Z,74.63
2018-01-04T05:01:21.040Z,74.25
2018-01-04T05:02:01.388Z,74.06
2018-01-04T05:02:41.886Z,73.58
2018-01-04T05:03:22.813Z,73.49
2018-01-04T05:04:03.187Z,73.3
2018-01-04T05:04:43.797Z,73.3
2018-01-04T05:05:24.071Z,73.21
2018-01-04T05:06:04.433Z,73.21
2018-01-04T05:06:45.087Z,73.3
2018-01-04T05:07:25.891Z,72.34
2018-01-04T05:08:06.348Z,72.82
2018-01-04T05:08:46.785Z,72.63
2018-01-04T05:09:27.212Z,73.01
2018-01-04T05:10:07.704Z,73.01
2018-01-04T05:10:48.058Z,73.11
2018-01-04T05:11:28.497Z,72.82
2018-01-04T05:12:08.864Z,72.44
2018-01-04T05:12:49.296Z,72.63
2018-01-04T05:13:29.664Z,72.82
2018-01-04T05:14:10.771Z,72.53
2018-01-04T05:14:51.112Z,72.72
2018-01-04T05:15:31.520Z,72.72
2018-01-04T05:16:12.018Z,72.72
2018-01-04T05:16:52.597Z,73.01
2018-01-04T05:17:32.864Z,72.53
2018-01-04T05:18:13.184Z,72.72
2018-01-04T05:18:53.598Z,72.82
2018-01-04T05:19:34.076Z,72.25
2018-01-04T05:20:14.464Z,73.3
2018-01-04T05:20:55.149Z,72.53
2018-01-04T05:21:35.467Z,72.92
2018-01-04T05:22:15.965Z,73.21
2018-01-04T05:22:56.332Z,73.11
2018-01-04T05:23:36.727Z,72.53
2018-01-04T05:24:17.282Z,73.21
2018-01-04T05:26:17.758Z,73.01
2018-01-04T05:27:11.046Z,72.72
2018-01-04T05:28:03.077Z,72.63
2018-01-04T05:28:48.433Z,72.82
2018-01-04T05:29:29.061Z,72.82
2018-01-04T05:30:09.444Z,73.11
2018-01-04T05:30:50.712Z,73.11
2018-01-04T05:31:31.217Z,72.92
2018-01-04T05:32:11.714Z,72.44
2018-01-04T05:32:52.402Z,72.53
2018-01-04T05:33:32.849Z,72.72
2018-01-04T05:34:13.256Z,73.39
2018-01-04T05:34:53.613Z,72.63
2018-01-04T05:35:34.149Z,72.92
2018-01-04T05:36:14.659Z,73.11
2018-01-04T05:36:55.062Z,73.01
2018-01-04T05:37:35.503Z,73.49
2018-01-04T05:38:16.851Z,73.01
2018-01-04T05:38:59.049Z,73.21
2018-01-04T05:39:39.745Z,73.3
2018-01-04T05:40:20.182Z,73.07
2018-01-04T05:41:00.577Z,73.68
2018-01-04T05:41:40.943Z,73.49
2018-01-04T05:42:21.316Z,74.25
2018-01-04T05:43:01.855Z,72.97
2018-01-04T05:43:43.672Z,73.87
2018-01-04T05:44:24.699Z,73.65
2018-01-04T05:45:05.654Z,73.83
2018-01-04T05:48:48.150Z,74.31
2018-01-04T05:49:29.592Z,73.74
2018-01-04T05:50:09.975Z,73.83
2018-01-04T05:50:50.660Z,73.65
2018-01-04T05:51:30.969Z,74.02
2018-01-04T05:52:11.323Z,74.4
2018-01-04T05:52:51.983Z,74.4
2018-01-04T05:53:32.369Z,73.65
2018-01-04T05:54:12.972Z,73.83
2018-01-04T05:54:53.156Z,73.83
2018-01-04T05:55:33.962Z,74.02
2018-01-04T05:56:14.114Z,74.4
2018-01-04T05:56:54.532Z,74.31
2018-01-04T05:57:34.952Z,74.6
2018-01-04T05:58:16.776Z,74.98
2018-01-04T05:58:57.193Z,74.98
2018-01-04T05:59:38.836Z,74.79
2018-01-04T06:00:19.291Z,75.55
2018-01-04T06:01:00.440Z,75.07
2018-01-04T06:01:41.013Z,74.88
2018-01-04T06:02:21.956Z,75.36
2018-01-04T06:03:02.688Z,74.4
2018-01-04T06:03:43.217Z,74.4
2018-01-04T06:04:23.538Z,74.4
2018-01-04T06:05:03.994Z,74.88
2018-01-04T06:05:45.337Z,75.36
2018-01-04T06:06:25.588Z,75.16
2018-01-04T06:07:06.719Z,75.93
2018-01-04T06:07:48.691Z,76.31
2018-01-04T06:08:29.403Z,75.55
2018-01-04T06:09:09.847Z,74.98
2018-01-04T06:09:50.208Z,74.69
2018-01-04T06:10:31.198Z,75.36
2018-01-04T06:11:11.450Z,75.07
2018-01-04T06:11:52.399Z,74.6
2018-01-04T06:12:32.793Z,74.98
2018-01-04T06:13:13.243Z,75.07
2018-01-04T06:13:53.807Z,74.21
2018-01-04T06:14:34.164Z,74.5
2018-01-04T06:15:16.032Z,74.6
2018-01-04T06:19:08.860Z,74.79
2018-01-04T06:19:49.205Z,74.98
2018-01-04T06:20:29.434Z,74.88
2018-01-04T06:21:09.869Z,75.16
2018-01-04T06:21:53.164Z,75.26
2018-01-04T06:22:31.232Z,75.16
2018-01-04T06:23:12.101Z,75.26
2018-01-04T06:23:52.960Z,75.07
2018-01-04T06:24:33.876Z,74.79
2018-01-04T06:25:14.416Z,75.26
2018-01-04T06:25:55.404Z,74.98
2018-01-04T06:26:36.356Z,75.07
2018-01-04T06:27:16.868Z,75.26
2018-01-04T06:27:57.617Z,75.07
2018-01-04T06:28:38.660Z,75.16
2018-01-04T06:29:20.076Z,75.51
2018-01-04T06:30:00.187Z,75.6
2018-01-04T06:30:40.509Z,75.7
2018-01-04T06:31:20.863Z,76.37
2018-01-04T06:32:01.302Z,75.51
2018-01-04T06:32:42.721Z,75.99
2018-01-04T06:33:23.551Z,76.18
2018-01-04T06:34:03.960Z,76.27
2018-01-04T06:34:44.328Z,76.27
2018-01-04T06:35:24.978Z,76.27
2018-01-04T06:36:06.106Z,76.18
2018-01-04T06:36:46.575Z,76.08
2018-01-04T06:37:26.958Z,76.46
2018-01-04T06:38:07.365Z,76.46
2018-01-04T06:38:48.123Z,75.99
2018-01-04T06:39:28.946Z,75.89
2018-01-04T06:40:09.261Z,76.08
2018-01-04T06:40:49.965Z,76.08
2018-01-04T06:41:30.453Z,76.31
2018-01-04T06:42:10.895Z,76.03
2018-01-04T06:42:51.294Z,75.45
2018-01-04T06:43:31.953Z,75.51
2018-01-04T06:44:13.083Z,75.42
2018-01-04T06:44:53.932Z,75.99
2018-01-04T06:45:34.456Z,75.89
2018-01-04T06:46:15.315Z,76.08
2018-01-04T06:46:55.795Z,75.51
2018-01-04T06:47:36.550Z,76.08
2018-01-04T06:48:17.133Z,76.18
2018-01-04T06:48:57.743Z,76.08
2018-01-04T06:49:39.070Z,76.08
2018-01-04T06:50:20.680Z,76.27
2018-01-04T06:51:01.088Z,76.27
2018-01-04T06:51:41.480Z,77.13
2018-01-04T06:52:22.258Z,76.27
2018-01-04T06:53:03.346Z,76.56
2018-01-04T06:53:44.887Z,76.08
2018-01-04T06:54:25.847Z,76.08
2018-01-04T06:55:06.315Z,75.79
2018-01-04T06:55:46.779Z,76.18
2018-01-04T06:56:29.704Z,76.08
2018-01-04T06:57:10.160Z,75.89
2018-01-04T06:57:50.544Z,76.37
2018-01-04T06:58:31.356Z,76.18
2018-01-04T06:59:11.747Z,75.42
2018-01-04T06:59:52.433Z,76.37
2018-01-04T07:00:32.801Z,76.18
2018-01-04T07:01:13.215Z,76.37
2018-01-04T07:01:53.584Z,76.08
2018-01-04T07:02:34.281Z,76.08
2018-01-04T07:03:14.889Z,76.37
2018-01-04T07:03:55.536Z,76.12
2018-01-04T07:04:36.015Z,76.12
2018-01-04T07:05:16.348Z,76.4
2018-01-04T07:05:56.748Z,76.12
2018-01-04T07:06:37.295Z,76.4
2018-01-04T07:07:17.587Z,75.55
2018-01-04T07:07:57.886Z,75.45
2018-01-04T07:08:38.296Z,75.45
2018-01-04T07:09:19.468Z,75.74
2018-01-04T07:10:00.341Z,75.93
2018-01-04T07:10:41.332Z,75.07
2018-01-04T07:11:21.715Z,74.98
2018-01-04T07:12:02.851Z,74.88
2018-01-04T07:12:43.392Z,74.98
2018-01-04T07:13:23.682Z,74.6
2018-01-04T07:14:04.062Z,74.88
2018-01-04T07:14:44.557Z,74.6
2018-01-04T07:15:24.853Z,75.16
2018-01-04T07:16:05.261Z,75.16
2018-01-04T07:16:46.089Z,75.16
2018-01-04T07:17:26.246Z,75.07
2018-01-04T07:18:06.766Z,75.36
2018-01-04T07:18:47.054Z,75.55
2018-01-04T07:19:27.481Z,75.84
2018-01-04T07:20:10.290Z,75.7
2018-01-04T07:20:50.946Z,75.99
2018-01-04T07:21:31.054Z,76.08
2018-01-04T07:22:11.659Z,76.4
2018-01-04T07:22:51.867Z,76.03
2018-01-04T07:23:32.322Z,76.03
2018-01-04T07:24:12.794Z,76.5
2018-01-04T07:24:53.231Z,76.5
2018-01-04T07:25:33.571Z,76.12
2018-01-04T07:26:13.971Z,76.03
2018-01-04T07:26:54.388Z,75.84
2018-01-04T07:27:34.864Z,76.03
2018-01-04T07:28:15.530Z,76.12
2018-01-04T07:28:56.076Z,76.4
2018-01-04T07:29:36.627Z,75.84
2018-01-04T07:30:17.033Z,76.12
2018-01-04T07:30:57.361Z,75.55
2018-01-04T07:31:38.715Z,76.03
2018-01-04T07:32:19.687Z,76.03
2018-01-04T07:33:00.255Z,75.55
2018-01-04T07:33:41.072Z,75.45
2018-01-04T07:34:21.194Z,75.36
2018-01-04T07:35:03.310Z,75.84
2018-01-04T07:35:43.565Z,75.84
2018-01-04T07:36:24.297Z,75.93
2018-01-04T07:37:05.345Z,75.45
2018-01-04T07:37:46.898Z,75.55
2018-01-04T07:38:26.933Z,75.64
2018-01-04T07:39:08.289Z,75.55
2018-01-04T07:39:48.743Z,75.93
2018-01-04T07:40:29.611Z,76.03
2018-01-04T07:41:09.977Z,76.03
2018-01-04T07:41:50.928Z,76.12
2018-01-04T07:42:32.065Z,76.03
2018-01-04T07:43:12.735Z,75.55
2018-01-04T07:43:53.919Z,75.55
2018-01-04T07:44:35.247Z,76.21
2018-01-04T07:45:15.079Z,76.27
2018-01-04T07:45:56.298Z,76.56
2018-01-04T07:46:36.299Z,77.22
2018-01-04T07:47:17.362Z,76.84
2018-01-04T07:47:58.209Z,77.03
2018-01-04T07:48:38.867Z,76.46
2018-01-04T07:49:19.972Z,77.03
2018-01-04T07:50:01.069Z,76.84
2018-01-04T07:50:41.563Z,77.22
2018-01-04T07:51:23.263Z,77.42
2018-01-04T07:52:03.793Z,77.32
2018-01-04T07:52:44.749Z,77.22
2018-01-04T07:53:24.848Z,77.42
2018-01-04T07:54:06.283Z,77.32
2018-01-04T07:54:46.748Z,77.42
2018-01-04T07:55:27.306Z,76.94
2018-01-04T07:56:07.621Z,77.42
2018-01-04T07:56:48.146Z,77.98
2018-01-04T07:57:28.608Z,77.51
2018-01-04T07:58:09.792Z,77.51
2018-01-04T07:58:49.665Z,78.08
2018-01-04T07:59:30.203Z,77.51
2018-01-04T08:00:10.551Z,77.98
2018-01-04T08:00:51.025Z,78.56
2018-01-04T08:01:31.379Z,78.17
2018-01-04T08:02:12.867Z,78.56
2018-01-04T08:02:53.064Z,78.17
2018-01-04T08:03:33.357Z,78.37
2018-01-04T08:04:13.740Z,78.56
2018-01-04T08:04:54.162Z,78.08
2018-01-04T08:05:34.594Z,78.65
2018-01-04T08:06:15.774Z,78.75
2018-01-04T08:06:56.771Z,78.65
2018-01-04T08:07:37.773Z,79.13
2018-01-04T08:08:17.775Z,78.46
2018-01-04T08:08:58.477Z,78.46
2018-01-04T08:09:40.283Z,79.03
2018-01-04T08:10:20.648Z,79.03
2018-01-04T08:11:01.334Z,78.94
2018-01-04T08:11:42.823Z,79.57
2018-01-04T08:12:23.544Z,79.66
2018-01-04T08:13:04.119Z,80.04
2018-01-04T08:13:44.918Z,79.94
2018-01-04T08:14:27.135Z,80.23
2018-01-04T08:15:07.059Z,79.94
2018-01-04T08:15:47.825Z,80.71
2018-01-04T08:16:28.864Z,80.9
2018-01-04T08:17:09.095Z,80.71
2018-01-04T08:17:49.535Z,80.99
2018-01-04T08:18:30.963Z,80.9
2018-01-04T08:19:11.061Z,80.61
2018-01-04T08:19:52.908Z,81.09
2018-01-04T08:20:34.133Z,80.9
2018-01-04T08:21:14.715Z,81.09
2018-01-04T08:21:56.814Z,81.37
2018-01-04T08:22:37.182Z,81.37
2018-01-04T08:23:17.943Z,81.76
2018-01-04T08:23:58.189Z,82.14
2018-01-04T08:24:38.792Z,82.14
2018-01-04T08:25:19.233Z,82.61
2018-01-04T08:25:59.782Z,82.8
2018-01-04T08:26:40.996Z,83.56
2018-01-04T08:27:21.086Z,83.37
2018-01-04T08:28:01.908Z,83.85
2018-01-04T08:28:42.399Z,83.85
2018-01-04T08:29:23.763Z,83.85
2018-01-04T08:30:03.909Z,83.85
2018-01-04T08:30:44.444Z,83.56
2018-01-04T08:31:25.767Z,83.56
2018-01-04T08:32:05.864Z,83.75
2018-01-04T08:32:46.329Z,84.04
2018-01-04T08:33:26.970Z,84.23
2018-01-04T08:34:07.796Z,83.65
2018-01-04T08:34:48.336Z,83.65
2018-01-04T08:35:29.379Z,83.94
2018-01-04T08:36:10.374Z,83.85
2018-01-04T08:36:51.830Z,84.61
2018-01-04T08:37:31.620Z,84.89
2018-01-04T08:38:12.479Z,85.28
2018-01-04T08:38:53.031Z,85.37
2018-01-04T08:39:33.792Z,85.66
2018-01-04T08:40:14.720Z,85.56
2018-01-04T08:40:55.112Z,85.37
2018-01-04T08:41:36.314Z,85.37
2018-01-04T08:42:16.965Z,85.75
2018-01-04T08:42:57.609Z,85.47
2018-01-04T08:43:38.424Z,85.47
2018-01-04T08:44:19.795Z,85.56
2018-01-04T08:44:59.869Z,85.18
2018-01-04T08:45:40.801Z,85.56
2018-01-04T08:46:21.415Z,85.47
2018-01-04T08:47:02.574Z,85.66
2018-01-04T08:47:44.013Z,86.22
2018-01-04T08:48:25.127Z,85.56
2018-01-04T08:49:13.192Z,85.85
2018-01-04T08:49:52.562Z,86.22
2018-01-04T08:50:34.450Z,86.13
2018-01-04T08:51:15.996Z,86.32
2018-01-04T08:51:57.291Z,86.32
2018-01-04T08:52:43.063Z,87.46
2018-01-04T08:53:24.363Z,87.18
2018-01-04T08:54:05.367Z,87.27
2018-01-04T08:54:45.835Z,87.27
2018-01-04T08:55:26.840Z,87.65
2018-01-04T08:56:08.538Z,87.37
2018-01-04T08:56:50.336Z,87.37
2018-01-04T08:57:37.340Z,87.52
2018-01-04T08:58:15.376Z,87.94
2018-01-04T08:58:56.106Z,87.65
2018-01-04T08:59:37.179Z,87.75
2018-01-04T09:00:19.934Z,87.46
2018-01-04T09:01:01.920Z,87.8
2018-01-04T09:01:43.294Z,87.42
2018-01-04T09:02:25.484Z,88.04
2018-01-04T09:03:05.633Z,88.09
2018-01-04T09:03:46.442Z,88.28
2018-01-04T09:04:28.341Z,87.94
2018-01-04T09:05:08.830Z,88.13
2018-01-04T09:05:52.231Z,88.51
2018-01-04T09:06:34.417Z,88.79
2018-01-04T09:07:16.282Z,88.89
2018-01-04T09:07:56.487Z,89.08
2018-01-04T09:08:37.387Z,88.51
2018-01-04T09:09:18.223Z,88.37
2018-01-04T09:09:58.957Z,88.66
2018-01-04T09:10:40.802Z,88.75
2018-01-04T09:11:21.186Z,89.04
2018-01-04T09:12:02.079Z,88.85
2018-01-04T09:12:44.040Z,89.51
2018-01-04T09:13:25.033Z,89.32
2018-01-04T09:14:05.578Z,88.85
2018-01-04T09:14:46.312Z,89.14
2018-01-04T09:15:27.131Z,89.14
2018-01-04T09:16:08.343Z,88.75
2018-01-04T09:16:49.392Z,88.66
2018-01-04T09:17:29.803Z,89.23
2018-01-04T09:18:11.397Z,89.8
2018-01-04T09:18:54.136Z,89.99
2018-01-04T09:19:38.954Z,90.37
2018-01-04T09:20:19.962Z,90.18
2018-01-04T09:21:02.296Z,90.84
2018-01-04T09:21:44.368Z,90.56
2018-01-04T09:22:26.628Z,90.75
2018-01-04T09:23:07.775Z,90.28
2018-01-04T09:23:49.885Z,90.47
2018-01-04T09:24:30.579Z,90.47
2018-01-04T09:25:12.338Z,89.42
2018-01-04T09:25:54.031Z,90.08
2018-01-04T09:26:37.480Z,90.18
2018-01-04T09:27:19.620Z,90.56
2018-01-04T09:28:01.184Z,89.42
2018-01-04T09:28:41.838Z,89.42
2018-01-04T09:29:23.390Z,90.08
2018-01-04T09:30:04.413Z,89.89
2018-01-04T09:30:45.179Z,90.37
2018-01-04T09:31:25.753Z,90.08
2018-01-04T09:32:07.481Z,90.47
2018-01-04T09:32:49.082Z,90.75
2018-01-04T09:33:30.007Z,90.66
2018-01-04T09:34:10.939Z,90.75
2018-01-04T09:34:51.323Z,90.75
2018-01-04T09:35:32.852Z,90.47
2018-01-04T09:36:14.327Z,91.03
2018-01-04T09:36:55.144Z,90.75
2018-01-04T09:37:35.770Z,90.47
2018-01-04T09:38:17.290Z,90.84
2018-01-04T09:38:58.804Z,91.13
2018-01-04T09:39:41.162Z,90.94
2018-01-04T09:40:21.642Z,90.94
2018-01-04T09:41:02.304Z,91.42
2018-01-04T09:41:43.811Z,91.42
2018-01-04T09:42:24.294Z,91.42
2018-01-04T09:43:04.816Z,91.32
2018-01-04T09:43:45.654Z,90.94
2018-01-04T09:44:26.203Z,91.03
2018-01-04T09:45:11.244Z,91.13
2018-01-04T09:45:52.791Z,91.51
2018-01-04T09:46:33.140Z,91.61
2018-01-04T09:47:13.787Z,91.22
2018-01-04T09:47:54.308Z,91.13
2018-01-04T09:48:35.474Z,91.42
2018-01-04T09:49:16.983Z,91.42
2018-01-04T09:49:57.764Z,91.32
2018-01-04T09:50:39.258Z,92.18
2018-01-04T09:51:20.207Z,91.42
2018-01-04T09:52:00.824Z,91.61
2018-01-04T09:52:41.422Z,91.99
2018-01-04T09:53:22.044Z,92.56